Braddock, ND (58524)

7:52 AM CDT on June 25, 2017 (GMT -0500)
Hwy 34 Hazelton | | Change Station

Elev 1982 ft 46.49 °N, 100.27 °W | Updated 7 seconds ago

Overcast
Overcast
48.4 °F
Feels Like 48 °F
N
2.0
Wind Variable Wind from SW
Gusts 2.5 mph

Today
High -- | Low -- °F
--% Chance of Precip.
Yesterday
High -- | Low -- °F
Precip. -- in
Pressure 30.31 in
Visibility 10.0 miles
Clouds Overcast 8000 ft
Windchill 48 °F
Dew Point 41 °F
Humidity 75%
Rainfall 0.00 in
Snow Depth Not available.
5:48 AM 9:37 PM
Waxing Crescent, 3% visible
METAR KBIS 251152Z 00000KT 10SM -RA OVC080 08/04 A3030 RMK AO2 RAB31 SLP264 P0000 60000 T00830044 10089 20050 53006
Pressure 30.31 in
Visibility 10.0 miles
Clouds Overcast 8000 ft
Windchill 48 °F
Dew Point 41 °F
Humidity 75%
Rainfall 0.00 in
Snow Depth Not available.
5:48 AM 9:37 PM
Waxing Crescent, 3% visible
METAR KBIS 251152Z 00000KT 10SM -RA OVC080 08/04 A3030 RMK AO2 RAB31 SLP264 P0000 60000 T00830044 10089 20050 53006

Get Severe Weather Alerts

Thanks for signing up!

Be on the lookout for a verification email in your inbox.

You'll start receiving the daily forecast at 6 AM.

×

10-Day Weather Forecast

Almanac

Astronomy

Jun. 25, 2017 Rise Set
Actual Time
Civil Twilight
Nautical Twilight
Astronomical Twilight
Moon
Length of Visible Light
Length of Day
Tomorrow will be .
, % of the Moon is Illuminated

Today's Extremes

State Highs State Lows

Community

WunderPhotos

Category 6

Welcome to Category 6. This is the collective home for Weather Underground's featured writeups by Dr. Jeff Masters (right), Bob Henson (left), Chris Burt, and other regular contributors.

Nearby

Air Quality

  Air Quality AQ Index Pollutant
Not available.

Snow Depth

Station Depth Elevation

Earthquake Activity

City Distance Mag. Time & Date
Minimum magnitude displayed is 2.5.

Coastal Water Temperatures

Place Temperature

Stations

Nearby Weather Stations

Station Location Temp. Windchill Dew Point Humidity Wind Precip. Elev Updated Type
                   

Watches & Warnings

There are currently no watches in effect.